Time;durP1;ratioP1;P1;durP2;ratioP2;P2;SDS_P1;SDS_P2;PMS_P1;PMS_P2;Temp;Humidity;BMP_temperature;BMP_pressure;BME280_temperature;BME280_humidity;BME280_pressure;Samples;Min_cycle;Max_cycle;Signal;HPM_P1;HPM_P2
2020/12/25 00:02:33;;;;;;;26.25;8.35;;;;;;;0.75;58.78;98477.19;10498251;28;20105;-51
2020/12/25 00:07:36;;;;;;;24.02;9.43;;;;;;;0.86;58.83;98464.41;10498840;28;20147;-52
2020/12/25 00:12:37;;;;;;;20.60;7.35;;;;;;;0.98;58.73;98459.34;10497435;28;20101;-48
2020/12/25 00:17:39;;;;;;;21.67;8.88;;;;;;;1.03;58.43;98457.28;10498360;28;20048;-49
2020/12/25 00:22:41;;;;;;;18.42;8.48;;;;;;;0.98;58.50;98454.16;10497260;28;20160;-49
2020/12/25 00:27:44;;;;;;;20.75;7.35;;;;;;;1.01;58.26;98448.78;10496983;28;20438;-50
2020/12/25 00:32:45;;;;;;;19.23;8.00;;;;;;;1.02;58.69;98438.34;10496947;28;20049;-49
2020/12/25 00:37:48;;;;;;;24.63;10.15;;;;;;;0.96;58.76;98432.75;10497029;28;20121;-53
2020/12/25 00:42:49;;;;;;;19.73;8.77;;;;;;;1.07;58.74;98425.09;10496543;28;20055;-51
2020/12/25 00:47:51;;;;;;;13.35;5.38;;;;;;;1.17;58.65;98431.31;10499020;28;20063;-49
2020/12/25 00:52:54;;;;;;;22.10;7.88;;;;;;;1.07;58.86;98415.56;10496658;28;20135;-49
2020/12/25 00:57:55;;;;;;;15.88;6.32;;;;;;;1.09;58.83;98407.72;10496725;28;20060;-53
2020/12/25 01:02:59;;;;;;;16.90;6.88;;;;;;;1.06;58.76;98416.50;10494908;28;20055;-51
2020/12/25 01:08:02;;;;;;;20.17;7.32;;;;;;;0.97;59.68;98398.19;10496380;28;20055;-50
2020/12/25 01:13:03;;;;;;;15.90;5.50;;;;;;;1.00;59.47;98401.38;10495086;28;20048;-49
2020/12/25 01:18:05;;;;;;;14.98;7.18;;;;;;;0.96;59.50;98387.00;10496112;28;20056;-51
2020/12/25 01:23:08;;;;;;;18.10;7.90;;;;;;;0.96;59.58;98376.66;10496864;28;20079;-51
2020/12/25 01:28:09;;;;;;;11.23;5.47;;;;;;;1.03;59.40;98371.88;10496331;28;20052;-49
2020/12/25 01:33:11;;;;;;;13.00;4.95;;;;;;;1.00;59.79;98361.75;10495120;28;20045;-49
2020/12/25 01:38:13;;;;;;;13.85;6.03;;;;;;;1.05;60.08;98344.97;10496353;28;20556;-51
2020/12/25 01:43:15;;;;;;;11.82;5.65;;;;;;;1.06;60.29;98335.44;10496300;28;20056;-49
2020/12/25 01:48:17;;;;;;;16.85;6.68;;;;;;;1.03;60.53;98328.72;10498824;28;20063;-52
2020/12/25 01:53:21;;;;;;;16.40;6.72;;;;;;;1.11;60.63;98323.03;10497826;28;20505;-49
2020/12/25 01:58:24;;;;;;;12.38;5.43;;;;;;;1.11;60.50;98312.69;10495293;28;20072;-52
2020/12/25 02:03:26;;;;;;;7.97;3.38;;;;;;;1.02;61.21;98313.31;10494749;28;20505;-51
2020/12/25 02:08:28;;;;;;;12.32;5.53;;;;;;;0.91;61.82;98307.09;10495452;28;20397;-49
2020/12/25 02:13:30;;;;;;;12.40;5.13;;;;;;;0.97;61.93;98299.84;10499996;28;20054;-55
2020/12/25 02:18:38;;;;;;;14.40;6.60;;;;;;;0.89;62.79;98301.22;10503846;28;20106;-49
2020/12/25 02:23:41;;;;;;;8.45;4.22;;;;;;;0.80;63.32;98301.84;10504115;28;20397;-49
2020/12/25 02:28:42;;;;;;;11.68;5.60;;;;;;;0.77;63.78;98289.09;10502842;28;20101;-50
2020/12/25 02:33:44;;;;;;;11.90;5.50;;;;;;;0.71;64.36;98271.41;10502847;28;20049;-49
2020/12/25 02:38:47;;;;;;;12.02;4.78;;;;;;;0.71;64.55;98274.00;10501977;28;20143;-50
2020/12/25 02:43:49;;;;;;;8.43;3.85;;;;;;;0.71;65.05;98253.31;10502032;28;20048;-49
2020/12/25 02:48:51;;;;;;;9.77;3.80;;;;;;;0.69;64.91;98266.31;10502891;28;20473;-52
2020/12/25 02:53:53;;;;;;;15.70;7.10;;;;;;;0.74;65.07;98242.75;10501311;28;20045;-52
2020/12/25 02:58:55;;;;;;;13.65;7.00;;;;;;;0.77;65.53;98232.19;10501569;28;20057;-49
2020/12/25 03:03:57;;;;;;;14.13;7.30;;;;;;;0.86;65.56;98239.31;10501443;28;20493;-51
2020/12/25 03:08:59;;;;;;;9.75;4.93;;;;;;;0.87;65.65;98233.22;10501262;28;20396;-50
2020/12/25 03:14:01;;;;;;;16.13;7.95;;;;;;;0.87;65.59;98235.78;10500133;28;20566;-49
2020/12/25 03:19:02;;;;;;;13.32;6.30;;;;;;;0.88;65.68;98228.84;10501184;28;20063;-52
2020/12/25 03:24:05;;;;;;;15.35;7.13;;;;;;;0.93;65.74;98215.63;10499271;28;20048;-52
2020/12/25 03:29:07;;;;;;;9.27;4.67;;;;;;;0.99;65.67;98200.50;10500626;28;20048;-51
2020/12/25 03:34:08;;;;;;;15.00;5.28;;;;;;;0.95;65.88;98211.13;10500198;28;20036;-51
2020/12/25 03:39:11;;;;;;;10.57;5.03;;;;;;;0.90;65.65;98196.78;10500175;28;20080;-49
2020/12/25 03:44:13;;;;;;;16.17;6.20;;;;;;;0.95;66.06;98198.19;10500533;28;20044;-49
2020/12/25 03:49:14;;;;;;;12.90;4.68;;;;;;;0.96;66.08;98194.72;10499580;28;20052;-49
2020/12/25 03:54:17;;;;;;;6.72;3.47;;;;;;;0.95;65.88;98187.84;10500034;28;20059;-51
2020/12/25 03:59:18;;;;;;;9.00;3.85;;;;;;;0.93;65.98;98176.81;10500519;28;20467;-52
2020/12/25 04:04:20;;;;;;;11.88;4.35;;;;;;;0.94;66.31;98179.28;10498633;28;20373;-49
2020/12/25 04:09:22;;;;;;;6.38;2.53;;;;;;;0.88;66.36;98171.94;10501488;28;20110;-49
2020/12/25 04:14:25;;;;;;;9.50;3.40;;;;;;;0.85;66.26;98166.97;10498996;28;20051;-49
2020/12/25 04:19:26;;;;;;;7.97;3.55;;;;;;;0.85;66.44;98160.03;10497760;28;20056;-52
2020/12/25 04:24:29;;;;;;;7.32;2.92;;;;;;;0.85;66.07;98157.44;10495979;28;20055;-49
2020/12/25 04:29:30;;;;;;;7.80;3.25;;;;;;;0.84;66.42;98160.97;10495331;28;20055;-51
2020/12/25 04:34:32;;;;;;;6.65;2.78;;;;;;;0.81;66.15;98156.03;10495812;28;20055;-49
2020/12/25 04:39:35;;;;;;;10.48;3.95;;;;;;;0.75;66.65;98150.47;10497239;28;20052;-52
2020/12/25 04:44:37;;;;;;;8.40;3.65;;;;;;;0.75;66.39;98146.09;10497004;28;20568;-51
2020/12/25 04:49:39;;;;;;;6.35;3.03;;;;;;;0.78;66.91;98143.31;10497505;28;20382;-56
2020/12/25 04:54:42;;;;;;;13.15;4.60;;;;;;;0.79;66.99;98136.38;10497933;28;20040;-52
2020/12/25 04:59:43;;;;;;;11.73;4.65;;;;;;;0.80;67.16;98125.94;10496503;28;20504;-51
2020/12/25 05:04:49;;;;;;;8.93;3.28;;;;;;;0.80;66.85;98123.34;10496722;28;20462;-49
2020/12/25 05:09:55;;;;;;;10.13;3.10;;;;;;;0.83;66.91;98112.78;10495766;28;20552;-51
2020/12/25 05:14:56;;;;;;;6.45;2.75;;;;;;;0.89;66.83;98108.91;10470388;28;20051;-49
2020/12/25 05:19:59;;;;;;;14.77;5.07;;;;;;;0.95;66.99;98094.72;10454318;28;20045;-51
2020/12/25 05:25:03;;;;;;;11.25;4.45;;;;;;;0.95;67.02;98099.88;10452638;28;20375;-51
2020/12/25 05:30:06;;;;;;;13.98;4.03;;;;;;;0.87;66.67;98103.03;10454736;28;20079;-49
2020/12/25 05:35:13;;;;;;;5.68;1.90;;;;;;;0.81;66.65;98082.78;10454073;28;20053;-51
2020/12/25 05:40:20;;;;;;;14.43;4.70;;;;;;;0.84;66.70;98091.13;10475741;28;20048;-51
2020/12/25 05:45:22;;;;;;;15.07;5.38;;;;;;;0.93;66.33;98079.31;10496225;28;20122;-49
2020/12/25 05:50:23;;;;;;;19.33;5.95;;;;;;;0.94;66.61;98075.78;10494636;28;20396;-52
2020/12/25 05:55:26;;;;;;;15.18;4.53;;;;;;;0.96;66.54;98083.44;10467350;28;20396;-51
2020/12/25 06:00:28;;;;;;;18.42;7.65;;;;;;;0.97;66.52;98072.16;10503333;28;20056;-50
2020/12/25 06:05:30;;;;;;;15.98;5.78;;;;;;;0.99;66.11;98070.28;10508534;28;20040;-55
2020/12/25 06:10:32;;;;;;;11.30;4.45;;;;;;;0.97;66.34;98064.38;10504828;28;20044;-51
2020/12/25 06:15:36;;;;;;;18.73;4.70;;;;;;;0.95;66.21;98058.50;10482856;28;20045;-49
2020/12/25 06:20:43;;;;;;;21.23;6.03;;;;;;;0.89;65.71;98058.00;10460940;28;20059;-51
2020/12/25 06:25:50;;;;;;;17.15;5.90;;;;;;;0.88;65.70;98048.56;10461573;28;20102;-51
2020/12/25 06:30:52;;;;;;;21.70;7.78;;;;;;;0.87;65.68;98039.19;10462286;28;20071;-49
2020/12/25 06:35:58;;;;;;;6.78;2.47;;;;;;;0.85;65.71;98035.88;10461474;28;20045;-50
2020/12/25 06:41:01;;;;;;;12.43;3.92;;;;;;;0.75;65.78;98037.47;10490631;28;20602;-49
2020/12/25 06:46:03;;;;;;;16.85;5.43;;;;;;;0.69;65.41;98035.31;10502759;28;20059;-49
2020/12/25 06:51:11;;;;;;;17.57;7.50;;;;;;;0.65;65.74;98039.91;10501657;28;20473;-49
2020/12/25 06:56:16;;;;;;;13.82;4.68;;;;;;;0.66;65.51;98040.72;10501695;28;20436;-56
2020/12/25 07:01:33;;;;;;;21.20;7.13;;;;;;;0.61;65.42;98046.19;10501386;28;20056;-49
2020/12/25 07:06:36;;;;;;;11.80;4.55;;;;;;;0.61;65.70;98053.13;10501077;28;20052;-52
2020/12/25 07:11:39;;;;;;;13.98;5.50;;;;;;;0.53;65.61;98034.78;10500500;28;20044;-49
2020/12/25 07:16:41;;;;;;;25.47;9.13;;;;;;;0.47;65.19;98038.63;10460711;28;20107;-50
2020/12/25 07:21:43;;;;;;;15.30;4.85;;;;;;;0.48;65.47;98049.78;10459012;28;20618;-48
2020/12/25 07:26:47;;;;;;;19.35;7.30;;;;;;;0.48;65.47;98039.44;10459029;28;20052;-51
2020/12/25 07:31:51;;;;;;;21.15;8.20;;;;;;;0.49;65.45;98041.91;10458595;28;20490;-52
2020/12/25 07:36:53;;;;;;;;;;;;;;;0.48;65.06;98040.25;10458516;28;20463;-52
2020/12/25 07:41:56;;;;;;;19.40;7.38;;;;;;;0.51;65.11;98041.81;10496734;28;20276;-51
2020/12/25 07:46:58;;;;;;;23.20;8.48;;;;;;;0.44;64.63;98050.00;10499721;28;20059;-51
2020/12/25 07:52:00;;;;;;;24.45;9.02;;;;;;;0.38;65.39;98032.31;10499525;28;20055;-51
2020/12/25 07:57:06;;;;;;;21.50;9.90;;;;;;;0.36;65.51;98035.94;10499508;28;20143;-51
2020/12/25 08:02:11;;;;;;;17.35;6.78;;;;;;;0.41;66.03;98032.09;10498102;28;20056;-49
2020/12/25 08:07:13;;;;;;;28.25;11.30;;;;;;;0.42;65.76;98031.16;10498255;28;20056;-49
2020/12/25 08:12:17;;;;;;;13.02;6.53;;;;;;;0.40;65.25;98037.38;10498105;28;20044;-49
2020/12/25 08:17:19;;;;;;;16.13;7.55;;;;;;;0.29;65.41;98030.38;10483617;28;20469;-51
2020/12/25 08:22:21;;;;;;;19.35;8.40;;;;;;;0.31;65.78;98027.69;10455877;28;20037;-51
2020/12/25 08:27:24;;;;;;;23.17;9.57;;;;;;;0.36;65.96;98015.25;10456330;28;20402;-50
2020/12/25 08:32:25;;;;;;;31.37;11.67;;;;;;;0.42;66.02;98018.25;10456806;28;20055;-49
2020/12/25 08:37:27;;;;;;;22.55;8.38;;;;;;;0.47;65.94;98011.94;10457038;28;20048;-49
2020/12/25 08:42:29;;;;;;;9.20;4.03;;;;;;;0.50;65.81;98016.88;10497971;28;20055;-49
2020/12/25 08:47:31;;;;;;;20.85;7.25;;;;;;;0.43;65.15;98019.91;10497285;28;20458;-49
2020/12/25 08:52:33;;;;;;;16.52;7.47;;;;;;;0.37;65.63;98007.41;10498205;28;20135;-49
2020/12/25 08:57:35;;;;;;;23.10;8.00;;;;;;;0.30;65.09;98001.00;10498344;28;20545;-49
2020/12/25 09:02:39;;;;;;;17.38;7.65;;;;;;;0.37;66.01;97997.06;10498618;28;20446;-51
2020/12/25 09:07:40;;;;;;;18.75;8.77;;;;;;;0.44;65.38;97993.13;10495732;28;20048;-49
2020/12/25 09:12:44;;;;;;;19.23;8.40;;;;;;;0.37;65.09;97962.63;10496858;28;20056;-50
2020/12/25 09:17:47;;;;;;;15.50;6.75;;;;;;;0.32;65.13;97973.31;10496240;28;20045;-51
2020/12/25 09:22:49;;;;;;;18.23;6.97;;;;;;;0.16;65.09;97965.81;10496038;28;20193;-48
2020/12/25 09:27:51;;;;;;;22.52;9.02;;;;;;;0.09;65.31;97966.34;10496314;28;20052;-48
2020/12/25 09:32:53;;;;;;;16.02;6.65;;;;;;;0.15;65.83;97965.91;10495494;28;20489;-48
2020/12/25 09:37:55;;;;;;;18.63;7.40;;;;;;;0.24;65.64;97960.09;10494101;28;20053;-51
2020/12/25 09:42:57;;;;;;;25.50;9.55;;;;;;;0.27;65.69;97948.72;10486530;28;20056;-51
2020/12/25 09:47:59;;;;;;;19.45;8.15;;;;;;;0.31;65.48;97948.41;10495620;28;20467;-49
2020/12/25 09:53:01;;;;;;;17.58;7.22;;;;;;;0.32;65.29;97946.63;10495850;28;20362;-51
2020/12/25 09:58:04;;;;;;;18.48;9.10;;;;;;;0.31;65.27;97940.66;10496009;28;20504;-49
2020/12/25 10:03:06;;;;;;;19.58;7.50;;;;;;;0.32;65.06;97942.28;10495495;28;20048;-51
2020/12/25 10:08:07;;;;;;;15.60;7.38;;;;;;;0.26;65.19;97941.91;10495998;28;20530;-49
2020/12/25 10:13:10;;;;;;;14.35;6.05;;;;;;;0.11;65.05;97931.72;10495597;28;20049;-48
2020/12/25 10:18:11;;;;;;;15.45;7.90;;;;;;;0.05;65.08;97928.75;10494219;28;20135;-49
2020/12/25 10:23:13;;;;;;;12.68;5.70;;;;;;;0.06;65.79;97925.22;10496166;28;20048;-49
2020/12/25 10:28:16;;;;;;;19.55;8.05;;;;;;;0.11;65.51;97928.31;10499376;28;20045;-48
2020/12/25 10:33:17;;;;;;;11.15;5.47;;;;;;;0.09;65.05;97919.84;10484966;28;20122;-47
2020/12/25 10:38:19;;;;;;;15.55;4.80;;;;;;;0.02;65.26;97905.72;10466382;28;20045;-49
2020/12/25 10:43:22;;;;;;;29.92;8.90;;;;;;;-0.01;65.76;97906.75;10495395;28;20051;-47
2020/12/25 10:48:23;;;;;;;14.95;6.95;;;;;;;0.04;65.12;97909.03;10502168;28;20144;-47
2020/12/25 10:53:25;;;;;;;16.33;6.88;;;;;;;-0.05;65.25;97908.72;10503461;28;20500;-47
2020/12/25 10:58:27;;;;;;;15.20;6.05;;;;;;;-0.03;65.53;97912.03;10501471;28;20060;-47
2020/12/25 11:03:29;;;;;;;23.08;7.55;;;;;;;-0.02;65.50;97905.94;10500246;28;20058;-51
2020/12/25 11:08:31;;;;;;;24.40;8.90;;;;;;;0.01;65.55;97893.75;10500720;28;20044;-47
2020/12/25 11:13:34;;;;;;;17.98;7.13;;;;;;;0.11;65.33;97902.47;10500422;28;20040;-48
2020/12/25 11:18:36;;;;;;;17.63;7.43;;;;;;;0.12;65.08;97894.59;10501635;28;20194;-52
2020/12/25 11:23:37;;;;;;;12.70;6.57;;;;;;;0.08;64.44;97889.78;10500559;28;20045;-50
2020/12/25 11:28:40;;;;;;;13.25;5.30;;;;;;;-0.03;64.38;97896.53;10505320;28;20396;-54
2020/12/25 11:33:42;;;;;;;24.63;7.97;;;;;;;-0.06;65.27;97893.34;10500773;28;20535;-48
2020/12/25 11:38:44;;;;;;;19.50;7.10;;;;;;;-0.03;64.96;97896.53;10500691;28;20488;-50
2020/12/25 11:43:47;;;;;;;13.55;6.35;;;;;;;-0.11;64.67;97893.66;10498967;28;20052;-50
2020/12/25 11:48:49;;;;;;;12.57;4.13;;;;;;;-0.13;64.95;97890.34;10499694;28;20080;-50
2020/12/25 11:53:52;;;;;;;12.35;5.22;;;;;;;-0.14;65.05;97891.28;10499890;28;20102;-50
2020/12/25 11:58:54;;;;;;;12.85;6.07;;;;;;;-0.12;65.00;97888.63;10499509;28;20057;-50
2020/12/25 12:03:56;;;;;;;11.50;5.38;;;;;;;-0.12;64.67;97875.72;10498686;28;20060;-50
2020/12/25 12:08:58;;;;;;;15.00;5.60;;;;;;;-0.12;64.91;97879.09;10498376;28;20125;-48
2020/12/25 12:14:00;;;;;;;12.82;5.53;;;;;;;-0.12;64.30;97876.53;10497569;28;20054;-48
2020/12/25 12:19:02;;;;;;;17.75;6.65;;;;;;;-0.17;64.29;97873.44;10498650;28;20052;-48
2020/12/25 12:24:03;;;;;;;15.98;6.30;;;;;;;-0.17;64.54;97877.78;10496922;28;20139;-48
2020/12/25 12:29:06;;;;;;;18.90;6.95;;;;;;;-0.23;64.31;97860.94;10495650;28;20396;-50
2020/12/25 12:34:08;;;;;;;14.48;6.93;;;;;;;-0.24;64.09;97874.81;10499847;28;20158;-51
2020/12/25 12:39:09;;;;;;;17.38;7.25;;;;;;;-0.33;64.12;97860.78;10497444;28;20044;-47
2020/12/25 12:44:12;;;;;;;16.92;5.72;;;;;;;-0.42;64.20;97870.94;10497951;28;20049;-51
2020/12/25 12:49:13;;;;;;;9.65;4.47;;;;;;;-0.44;64.38;97865.03;10499047;28;20059;-48
2020/12/25 12:54:15;;;;;;;16.10;6.03;;;;;;;-0.43;64.35;97858.94;10498504;28;20135;-50
2020/12/25 12:59:18;;;;;;;17.48;7.10;;;;;;;-0.38;64.27;97867.19;10492683;28;20065;-48
2020/12/25 13:04:20;;;;;;;17.02;6.50;;;;;;;-0.38;64.04;97873.19;10456480;28;20156;-51
2020/12/25 13:09:22;;;;;;;18.02;6.65;;;;;;;-0.36;63.91;97857.59;10454449;28;20053;-50
2020/12/25 13:14:25;;;;;;;14.30;7.47;;;;;;;-0.37;63.87;97866.25;10479165;28;20048;-49
2020/12/25 13:19:27;;;;;;;;;;;;;;;-0.36;63.95;97873.09;10498394;28;20057;-51
2020/12/25 13:24:28;;;;;;;13.73;6.15;;;;;;;-0.30;63.79;97867.50;10456157;28;19971;-48
2020/12/25 13:29:31;;;;;;;16.67;7.45;;;;;;;-0.33;63.69;97865.13;10455714;28;20053;-48
2020/12/25 13:34:33;;;;;;;14.63;6.30;;;;;;;-0.38;63.66;97864.59;10454933;28;20433;-50
2020/12/25 13:39:34;;;;;;;14.68;5.03;;;;;;;-0.48;63.64;97857.50;10456282;28;20053;-48
2020/12/25 13:44:37;;;;;;;16.23;6.38;;;;;;;-0.52;63.93;97863.81;10463327;28;20052;-50
2020/12/25 13:49:38;;;;;;;14.65;5.72;;;;;;;-0.53;63.99;97859.56;10497085;28;20481;-48
2020/12/25 13:54:40;;;;;;;13.45;5.93;;;;;;;-0.67;63.83;97844.25;10495995;28;20060;-50
2020/12/25 13:59:43;;;;;;;13.98;5.32;;;;;;;-0.70;63.94;97849.59;10497233;28;20126;-48
2020/12/25 14:04:44;;;;;;;12.10;5.20;;;;;;;-0.72;64.09;97847.13;10496629;28;20089;-49
2020/12/25 14:09:46;;;;;;;17.70;6.22;;;;;;;-0.71;64.01;97840.19;10501075;28;20057;-50
2020/12/25 14:14:48;;;;;;;8.48;3.83;;;;;;;-0.77;63.83;97846.63;10507487;28;20064;-50
2020/12/25 14:19:50;;;;;;;16.08;6.70;;;;;;;-0.84;63.75;97844.56;10505935;28;20062;-52
2020/12/25 14:24:51;;;;;;;11.93;4.90;;;;;;;-0.79;63.86;97834.75;10502999;28;20481;-50
2020/12/25 14:29:54;;;;;;;14.60;5.43;;;;;;;-0.73;63.60;97844.66;10495648;28;20048;-48
2020/12/25 14:34:56;;;;;;;15.85;4.95;;;;;;;-0.73;63.68;97839.50;10503539;28;20075;-48
2020/12/25 14:39:57;;;;;;;17.05;5.93;;;;;;;-0.72;63.79;97835.97;10503713;28;20056;-48
2020/12/25 14:45:00;;;;;;;19.55;6.68;;;;;;;-0.71;63.81;97837.63;10503347;28;20144;-48
2020/12/25 14:50:02;;;;;;;14.18;6.43;;;;;;;-0.71;63.43;97828.16;10481150;28;20045;-57
2020/12/25 14:55:03;;;;;;;10.35;4.32;;;;;;;-0.73;63.55;97832.59;10466092;28;20041;-51
2020/12/25 15:00:06;;;;;;;11.20;4.90;;;;;;;-0.77;63.74;97827.72;10503927;28;20076;-49
2020/12/25 15:05:07;;;;;;;8.30;3.55;;;;;;;-0.82;63.84;97829.81;10493013;28;20071;-48
2020/12/25 15:10:09;;;;;;;13.10;4.72;;;;;;;-0.90;63.88;97826.94;10491236;28;20044;-50
2020/12/25 15:15:12;;;;;;;12.00;5.18;;;;;;;-0.95;63.90;97819.50;10470003;28;20052;-51
2020/12/25 15:20:13;;;;;;;14.75;5.30;;;;;;;-0.89;63.84;97818.25;10458990;28;20049;-51
2020/12/25 15:25:15;;;;;;;9.82;4.20;;;;;;;-0.88;63.83;97815.56;10460814;28;20044;-50
2020/12/25 15:30:17;;;;;;;7.32;2.78;;;;;;;-0.90;63.91;97819.19;10489627;28;20052;-48
2020/12/25 15:35:19;;;;;;;8.52;2.13;;;;;;;-0.93;64.19;97822.78;10501203;28;20052;-49
2020/12/25 15:40:21;;;;;;;11.68;4.07;;;;;;;-0.91;64.38;97820.94;10500872;28;20049;-49
2020/12/25 15:45:23;;;;;;;14.05;5.43;;;;;;;-0.95;64.36;97825.50;10502045;28;20048;-50
2020/12/25 15:50:25;;;;;;;11.53;3.57;;;;;;;-0.98;64.27;97820.53;10498743;28;20063;-48
2020/12/25 15:55:26;;;;;;;9.88;4.47;;;;;;;-0.99;64.59;97818.88;10501468;28;20651;-47
2020/12/25 16:00:29;;;;;;;13.18;4.03;;;;;;;-1.03;64.83;97827.75;10501601;28;20063;-48
2020/12/25 16:05:32;;;;;;;5.90;2.77;;;;;;;-1.03;65.13;97824.34;10500049;28;20432;-48
2020/12/25 16:10:34;;;;;;;8.85;3.58;;;;;;;-1.01;64.89;97819.94;10500233;28;20052;-49
2020/12/25 16:15:36;;;;;;;9.23;2.95;;;;;;;-1.00;65.14;97817.22;10501068;28;20043;-50
2020/12/25 16:20:38;;;;;;;10.40;3.90;;;;;;;-0.98;65.03;97820.53;10499414;28;20067;-51
2020/12/25 16:25:40;;;;;;;10.27;3.50;;;;;;;-0.95;64.91;97810.00;10500074;28;20063;-50
2020/12/25 16:30:42;;;;;;;9.30;3.78;;;;;;;-0.89;64.79;97808.78;10498194;28;20055;-51
2020/12/25 16:35:44;;;;;;;12.20;2.85;;;;;;;-0.86;64.96;97805.13;10498141;28;20040;-48
2020/12/25 16:40:45;;;;;;;7.55;2.60;;;;;;;-0.88;64.88;97809.59;10498566;28;20405;-47
2020/12/25 16:45:48;;;;;;;13.07;5.47;;;;;;;-0.84;64.58;97816.19;10499383;28;20048;-48
2020/12/25 16:50:50;;;;;;;12.98;4.65;;;;;;;-0.80;64.86;97812.44;10497096;28;20052;-48
2020/12/25 16:55:51;;;;;;;7.95;3.00;;;;;;;-0.76;65.05;97811.34;10499175;28;20082;-49
2020/12/25 17:00:54;;;;;;;8.95;3.92;;;;;;;-0.76;64.76;97816.50;10494848;28;20131;-50
2020/12/25 17:05:57;;;;;;;15.90;3.53;;;;;;;-0.75;65.25;97810.38;10464776;28;20928;-48
2020/12/25 17:10:58;;;;;;;9.80;3.77;;;;;;;-0.78;64.77;97806.25;10457885;28;20045;-56
2020/12/25 17:16:02;;;;;;;12.25;4.65;;;;;;;-0.74;65.25;97799.13;10494866;28;20097;-47
2020/12/25 17:21:07;;;;;;;9.23;3.33;;;;;;;-0.70;64.89;97803.16;10496833;28;20056;-49
2020/12/25 17:26:11;;;;;;;11.25;3.90;;;;;;;-0.68;65.17;97800.47;10497917;28;20044;-50
2020/12/25 17:31:14;;;;;;;11.00;4.65;;;;;;;-0.67;65.46;97787.47;10498063;28;20044;-48
2020/12/25 17:36:16;;;;;;;9.73;4.57;;;;;;;-0.68;65.61;97803.88;10497106;28;20144;-50
2020/12/25 17:41:18;;;;;;;8.05;3.47;;;;;;;-0.71;65.32;97801.50;10497040;28;20075;-50
2020/12/25 17:46:21;;;;;;;15.02;5.78;;;;;;;-0.62;65.51;97806.00;10476368;28;20100;-52
2020/12/25 17:51:23;;;;;;;11.00;4.37;;;;;;;-0.54;65.48;97798.56;10465179;28;20048;-50
2020/12/25 17:56:26;;;;;;;10.98;4.88;;;;;;;-0.51;65.48;97795.78;10476352;28;20067;-49
2020/12/25 18:01:29;;;;;;;14.90;4.93;;;;;;;-0.45;65.76;97806.59;10495604;28;20056;-48
2020/12/25 18:06:30;;;;;;;15.98;5.63;;;;;;;-0.38;65.91;97815.56;10504152;28;20044;-49
2020/12/25 18:11:32;;;;;;;12.65;4.53;;;;;;;-0.38;65.38;97812.97;10504393;28;20056;-50
2020/12/25 18:16:35;;;;;;;17.13;4.68;;;;;;;-0.30;65.70;97811.50;10503489;28;20488;-51
2020/12/25 18:21:36;;;;;;;10.13;5.70;;;;;;;-0.27;65.52;97810.47;10503807;28;20559;-49
2020/12/25 18:26:38;;;;;;;17.35;7.15;;;;;;;-0.20;66.02;97800.53;10502793;28;20147;-48
2020/12/25 18:31:40;;;;;;;18.67;7.63;;;;;;;-0.15;65.75;97798.44;10504461;28;20048;-51
2020/12/25 18:36:42;;;;;;;17.73;6.43;;;;;;;-0.06;65.85;97827.00;10502652;28;20045;-49
2020/12/25 18:41:44;;;;;;;16.33;6.85;;;;;;;0.01;65.72;97829.16;10502969;28;20063;-47
2020/12/25 18:46:46;;;;;;;23.08;7.68;;;;;;;0.08;65.59;97822.59;10505498;28;20102;-48
2020/12/25 18:51:48;;;;;;;16.60;6.55;;;;;;;0.08;65.47;97832.94;10502582;28;20057;-48
2020/12/25 18:56:49;;;;;;;23.20;9.13;;;;;;;0.08;65.56;97835.53;10502704;28;20049;-49
2020/12/25 19:01:55;;;;;;;23.02;7.13;;;;;;;0.10;65.56;97839.66;10503953;28;20055;-53
2020/12/25 19:06:56;;;;;;;14.07;5.22;;;;;;;0.17;65.50;97834.84;10502481;28;20040;-50
2020/12/25 19:11:59;;;;;;;19.73;7.40;;;;;;;0.25;65.64;97827.38;10502402;28;20052;-48
2020/12/25 19:17:02;;;;;;;14.53;5.87;;;;;;;0.34;65.31;97831.88;10501888;28;20461;-50
2020/12/25 19:22:04;;;;;;;28.52;8.65;;;;;;;0.43;64.89;97836.38;10501992;28;20439;-48
2020/12/25 19:27:05;;;;;;;23.65;8.20;;;;;;;0.49;65.12;97845.41;10502255;28;20053;-51
2020/12/25 19:32:08;;;;;;;25.50;10.00;;;;;;;0.54;64.95;97827.81;10500768;28;20126;-51
2020/12/25 19:37:10;;;;;;;24.25;9.85;;;;;;;0.55;65.03;97824.28;10503076;28;20056;-50
2020/12/25 19:42:11;;;;;;;25.23;9.05;;;;;;;0.59;65.09;97824.91;10502167;28;20053;-50
2020/12/25 19:47:14;;;;;;;26.13;9.65;;;;;;;0.65;64.75;97817.50;10500059;28;20045;-48
2020/12/25 19:52:15;;;;;;;23.38;9.93;;;;;;;0.75;64.68;97824.56;10500103;28;20547;-50
2020/12/25 19:57:17;;;;;;;22.10;9.07;;;;;;;0.81;64.96;97824.94;10500208;28;20052;-49
2020/12/25 20:02:20;;;;;;;22.95;8.82;;;;;;;0.82;64.75;97825.75;10499873;28;20098;-49
2020/12/25 20:07:22;;;;;;;21.45;9.57;;;;;;;0.81;64.83;97826.69;10499259;28;20051;-50
2020/12/25 20:12:24;;;;;;;18.92;7.40;;;;;;;0.85;65.36;97834.09;10499469;28;20064;-50
2020/12/25 20:17:26;;;;;;;15.05;6.43;;;;;;;0.84;65.48;97832.47;10499686;28;20148;-51
2020/12/25 20:22:28;;;;;;;20.45;8.50;;;;;;;0.82;65.26;97831.75;10499168;28;20063;-50
2020/12/25 20:27:30;;;;;;;21.38;8.43;;;;;;;0.89;65.62;97835.53;10499552;28;20052;-48
2020/12/25 20:32:32;;;;;;;29.70;9.15;;;;;;;0.92;65.83;97847.38;10498002;28;20083;-48
2020/12/25 20:37:34;;;;;;;20.88;8.00;;;;;;;0.88;65.90;97851.16;10498557;28;20497;-50
2020/12/25 20:42:36;;;;;;;18.17;7.30;;;;;;;0.94;65.78;97850.69;10498292;28;20055;-51
2020/12/25 20:47:38;;;;;;;17.80;7.68;;;;;;;0.95;65.88;97849.75;10500393;28;20052;-55
2020/12/25 20:52:40;;;;;;;24.10;9.05;;;;;;;0.93;66.03;97853.41;10497727;28;20048;-48
2020/12/25 20:57:42;;;;;;;23.02;8.85;;;;;;;0.94;66.04;97860.22;10489656;28;20122;-48
2020/12/25 21:02:45;;;;;;;23.98;9.40;;;;;;;0.95;65.87;97856.69;10497821;28;20075;-50
2020/12/25 21:07:46;;;;;;;23.48;8.40;;;;;;;0.98;65.71;97861.63;10497674;28;20059;-50
2020/12/25 21:12:48;;;;;;;20.33;8.48;;;;;;;0.97;65.89;97860.81;10496617;28;20044;-49
2020/12/25 21:17:51;;;;;;;22.17;9.18;;;;;;;1.04;65.69;97853.41;10496707;28;20090;-52
2020/12/25 21:22:53;;;;;;;25.23;9.48;;;;;;;1.10;65.81;97840.00;10497603;28;20048;-48
2020/12/25 21:27:54;;;;;;;29.75;10.52;;;;;;;1.13;65.41;97850.94;10498994;28;20496;-50
2020/12/25 21:32:57;;;;;;;28.48;8.32;;;;;;;1.17;65.67;97861.06;10496499;28;20048;-48
2020/12/25 21:37:59;;;;;;;26.95;9.77;;;;;;;1.16;65.84;97852.47;10496423;28;20055;-51
2020/12/25 21:43:00;;;;;;;25.33;8.02;;;;;;;1.21;65.96;97837.41;10497461;28;20055;-48
2020/12/25 21:48:03;;;;;;;45.17;11.77;;;;;;;1.28;65.82;97838.59;10497368;28;20441;-50
2020/12/25 21:53:05;;;;;;;29.73;9.45;;;;;;;1.30;65.39;97843.66;10496968;28;20044;-48
2020/12/25 21:58:06;;;;;;;33.05;9.75;;;;;;;1.31;65.40;97853.88;10468769;28;20103;-52
2020/12/25 22:03:11;;;;;;;29.23;10.90;;;;;;;1.33;65.23;97851.19;10483137;28;20045;-51
2020/12/25 22:08:12;;;;;;;31.98;11.40;;;;;;;1.40;65.56;97846.38;10474890;28;20504;-50
2020/12/25 22:13:14;;;;;;;30.08;10.88;;;;;;;1.44;65.44;97840.81;10496931;28;20041;-48
2020/12/25 22:18:17;;;;;;;28.33;9.52;;;;;;;1.43;65.42;97833.19;10496860;28;20044;-48
2020/12/25 22:23:18;;;;;;;31.02;13.23;;;;;;;1.41;65.53;97829.88;10496721;28;20059;-50
2020/12/25 22:28:20;;;;;;;31.70;12.23;;;;;;;1.41;65.70;97822.09;10496654;28;20056;-51
2020/12/25 22:33:24;;;;;;;28.60;9.75;;;;;;;1.42;65.65;97826.34;10502045;28;20036;-51
2020/12/25 22:38:25;;;;;;;;;;;;;;;1.42;65.47;97822.00;10503569;28;20044;-48
2020/12/25 22:43:27;;;;;;;10.52;4.38;;;;;;;1.42;65.55;97832.34;10504418;28;19925;-49
2020/12/25 22:48:29;;;;;;;38.53;12.70;;;;;;;1.41;65.63;97830.69;10503193;28;20070;-49
2020/12/25 22:53:31;;;;;;;32.47;9.75;;;;;;;1.42;65.49;97829.78;10502679;28;20044;-48
2020/12/25 22:58:32;;;;;;;31.38;8.85;;;;;;;1.40;65.55;97823.06;10504268;28;20137;-48
2020/12/25 23:03:35;;;;;;;32.50;10.63;;;;;;;1.36;65.93;97820.72;10503295;28;20048;-50
2020/12/25 23:08:36;;;;;;;27.92;9.35;;;;;;;1.35;65.80;97813.88;10501986;28;20110;-49
2020/12/25 23:13:38;;;;;;;23.65;9.43;;;;;;;1.31;66.02;97794.34;10501959;28;20036;-48
2020/12/25 23:18:41;;;;;;;29.13;10.32;;;;;;;1.30;66.09;97805.66;10501366;28;20045;-49
2020/12/25 23:23:44;;;;;;;25.15;7.43;;;;;;;1.27;66.04;97812.84;10502695;28;20049;-48